Portada
METAR-TAF:

METAR-TAF

Aeroports :

Futuna, França

latitud: 14-19S, longitud: 178-07W, altitud: 6 m

METAR: manca

Hora: 10:10 (22:10 UTC)

Pronòstic

L'informe es va fer fa 5 hores i 10 minuts, a les 17:00 UTC
Pronòstic vàlid del 26 a les 18 UTC al 27 a les 18 UTC
Vent 10 kt del Est
Visibilitat 10 km o més
Núvols disperses a una alçada de 2000 ft
Temporalment
l' 26 a les 18 UTC al 27 a les 18 UTC
Visibilitat: 4000 m
Escasses núvols a una alçada de 2000 ft, Cumulus congestus.
xàfecs de pluja
Probabilitat 30% :
Temporalment
l' 26 a les 18 UTC al 27 a les 18 UTC
Visibilitat: 2000 m
Núvols disperses a una alçada de 2000 ft, Cumulonimbus.
xàfecs de pluja

TAF: NLWF 261700Z 2618/2718 10010KT 9999 SCT020 TEMPO 2618/2718 4000 SHRA FEW020TCU PROB30 TEMPO 2618/2718 2000 +SHRA SCT020CB

Observacions i pronòstics meteorològics de més de 4000 aeroports (METAR i TAF).

Les estacions disponibles són els punts grocs i vermells al mapa.

Posi el ratolí al punt desitjat per veure el nom de l'estació.

Feu clic per veure les observacions i els pronòstics meteorològics.

Per canviar el mapa: feu clic els botons verds amb una creu de color negre per apropar; al botó verd amb un guió per allunyar la imatge; o en les fletxes verdes per a mapes adjacents.


METAR-TAF: